Warning: Javascript must be enabled to use all the features on this page!


Page Loading - Please Wait...

Click to hideNews Bulletins

Peak Streamflow for the Nation

USGS 01609000 TOWN CREEK NEAR OLDTOWN, MD

Allegany County, Maryland
Hydrologic Unit Code 02070003
Latitude  39°33'11.6", Longitude  78°33'18.0" NAD83
Drainage area 148  square miles
Gage datum 547.30 feet above NAVD88
Output formats
Table
Graph
Tab-separated file
peakfq (watstore) format
Reselect output format
Water
Year
Date Gage
Height
(feet)
Stream-
flow
(cfs)
1928 1928-07-14 12.56 7,170
1929 1929-04-16 12.50 7,020
1930 1929-10-23 14.00 9,700
1931 1931-07-18 10.14 4,000
1932 1932-05-12 10.50 4,420
1933 1933-03-14 10.01 3,900
1934 1934-01-07 7.50 1,860
1935 1935-02-17 6.80 1,510
1936 1936-03-17 19.08 27,0007
1968 1968-05-28 7.882 1,830
1969 1969-08-20 8.72 2,260
1970 1970-04-02 12.15 6,340
1971 1971-02-23 10.05 3,350
1972 1972-06-22 14.13 11,700
1973 1973-02-03 8.31 2,040
1974 1973-10-30 10.36 3,690
1975 1975-04-26 11.82 5,740
1976 1975-10-18 10.95 4,130
1977 1976-10-10 12.06 6,050
1978 1978-05-16 9.752 2,870
1979 1979-02-26 10.31 3,270
1980 1979-11-27 9.11 2,470
1981 1981-04-13 10.87 4,020
2002 2002-05-18 6.35 1,160
2003 2003-06-04 11.11 4,380
2004 2004-09-18 12.54 7,070
2005 2005-03-29 12.40 6,760
2007 2007-04-15 10.07 3,420
2008 2008-03-05 12.67 6,330
2009 2009-05-05 11.64 4,960
2010 2010-03-14 10.45 3,710
2011 2011-05-17 11.72 5,050
2012 2011-12-08 9.20 2,810
2013 2012-10-30 8.89 2,620
2014 2014-06-13 9.51 3,030
2015 2015-06-28 10.08 3,550
2016 2016-06-05 9.87 3,400
2017 2017-05-06 10.09 3,550
2018 2018-06-03 13.17 7,210
2019 2018-12-16 9.93 3,440
2020 2020-04-30 8.28 2,370
2021 2021-09-02 15.11 12,300
2022 2022-05-08 11.79 5,130
?
  Peak Gage-Height Qualification Codes.
?
  Peak Streamflow Qualification Codes.